sensor_id;sensor_type;location;lat;lon;timestamp;pressure;altitude;pressure_sealevel;temperature;humidity
19676;BME280;39539;52.202;9.876;2023-05-01T00:01:49;101262.59;;;4.68;90.70
19676;BME280;39539;52.202;9.876;2023-05-01T00:04:15;101257.69;;;4.47;93.07
19676;BME280;39539;52.202;9.876;2023-05-01T00:06:41;101263.41;;;4.43;95.34
19676;BME280;39539;52.202;9.876;2023-05-01T00:09:06;101262.06;;;4.39;97.18
19676;BME280;39539;52.202;9.876;2023-05-01T00:11:34;101258.50;;;4.48;97.67
19676;BME280;39539;52.202;9.876;2023-05-01T00:14:00;101262.34;;;4.54;97.43
19676;BME280;39539;52.202;9.876;2023-05-01T00:16:25;101261.41;;;4.63;97.98
19676;BME280;39539;52.202;9.876;2023-05-01T00:18:50;101267.25;;;4.75;96.80
19676;BME280;39539;52.202;9.876;2023-05-01T00:21:16;101271.56;;;4.76;97.11
19676;BME280;39539;52.202;9.876;2023-05-01T00:23:41;101256.91;;;4.73;97.35
19676;BME280;39539;52.202;9.876;2023-05-01T00:26:07;101255.22;;;4.72;97.31
19676;BME280;39539;52.202;9.876;2023-05-01T00:28:32;101259.34;;;4.75;97.07
19676;BME280;39539;52.202;9.876;2023-05-01T00:30:59;101246.06;;;4.58;97.01
19676;BME280;39539;52.202;9.876;2023-05-01T00:33:24;101247.44;;;4.62;97.08
19676;BME280;39539;52.202;9.876;2023-05-01T00:35:49;101243.91;;;4.54;97.65
19676;BME280;39539;52.202;9.876;2023-05-01T00:38:16;101241.53;;;4.42;98.16
19676;BME280;39539;52.202;9.876;2023-05-01T00:40:45;101241.81;;;4.39;98.91
19676;BME280;39539;52.202;9.876;2023-05-01T00:43:11;101246.28;;;4.39;99.36
19676;BME280;39539;52.202;9.876;2023-05-01T00:45:38;101244.28;;;4.41;99.56
19676;BME280;39539;52.202;9.876;2023-05-01T00:48:04;101241.22;;;4.45;99.39
19676;BME280;39539;52.202;9.876;2023-05-01T00:50:30;101256.75;;;4.57;99.25
19676;BME280;39539;52.202;9.876;2023-05-01T00:52:56;101232.38;;;4.55;99.15
19676;BME280;39539;52.202;9.876;2023-05-01T00:55:22;101220.53;;;4.50;98.87
19676;BME280;39539;52.202;9.876;2023-05-01T00:57:47;101242.31;;;4.61;99.14
19676;BME280;39539;52.202;9.876;2023-05-01T01:00:13;101233.53;;;4.52;98.97
19676;BME280;39539;52.202;9.876;2023-05-01T01:02:38;101241.59;;;4.50;98.94
19676;BME280;39539;52.202;9.876;2023-05-01T01:05:05;101230.63;;;4.37;98.09
19676;BME280;39539;52.202;9.876;2023-05-01T01:07:50;101243.31;;;4.24;98.71
19676;BME280;39539;52.202;9.876;2023-05-01T01:10:55;101237.41;;;4.22;99.34
19676;BME280;39539;52.202;9.876;2023-05-01T01:13:37;101224.69;;;4.17;100.00
19676;BME280;39539;52.202;9.876;2023-05-01T01:16:38;101229.03;;;4.26;100.00
19676;BME280;39539;52.202;9.876;2023-05-01T01:21:45;101223.88;;;4.17;100.00
19676;BME280;39539;52.202;9.876;2023-05-01T01:24:35;101212.06;;;4.21;100.00
19676;BME280;39539;52.202;9.876;2023-05-01T01:32:56;101209.69;;;4.54;98.89
19676;BME280;39539;52.202;9.876;2023-05-01T01:35:26;101203.28;;;4.56;97.98
19676;BME280;39539;52.202;9.876;2023-05-01T01:41:16;101185.81;;;4.55;97.36
19676;BME280;39539;52.202;9.876;2023-05-01T01:43:46;101187.22;;;4.41;97.07
19676;BME280;39539;52.202;9.876;2023-05-01T01:46:13;101191.38;;;4.26;99.14
19676;BME280;39539;52.202;9.876;2023-05-01T01:48:42;101173.88;;;4.17;99.42
19676;BME280;39539;52.202;9.876;2023-05-01T01:51:17;101173.31;;;4.05;99.92
19676;BME280;39539;52.202;9.876;2023-05-01T01:53:48;101157.88;;;3.92;100.00
19676;BME280;39539;52.202;9.876;2023-05-01T01:56:16;101165.66;;;3.94;100.00
19676;BME280;39539;52.202;9.876;2023-05-01T01:58:43;101152.31;;;3.95;100.00
19676;BME280;39539;52.202;9.876;2023-05-01T02:01:08;101157.34;;;4.07;100.00
19676;BME280;39539;52.202;9.876;2023-05-01T02:03:35;101155.91;;;4.12;100.00
19676;BME280;39539;52.202;9.876;2023-05-01T02:06:03;101154.66;;;4.16;100.00
19676;BME280;39539;52.202;9.876;2023-05-01T02:08:30;101143.53;;;4.04;100.00
19676;BME280;39539;52.202;9.876;2023-05-01T02:10:56;101149.84;;;4.12;100.00
19676;BME280;39539;52.202;9.876;2023-05-01T02:13:26;101144.88;;;4.09;100.00
19676;BME280;39539;52.202;9.876;2023-05-01T02:15:55;101140.97;;;4.13;100.00
19676;BME280;39539;52.202;9.876;2023-05-01T02:18:20;101126.59;;;4.07;100.00
19676;BME280;39539;52.202;9.876;2023-05-01T02:20:47;101124.09;;;4.23;98.71
19676;BME280;39539;52.202;9.876;2023-05-01T02:23:13;101107.59;;;4.39;94.82
19676;BME280;39539;52.202;9.876;2023-05-01T02:25:39;101112.44;;;4.52;97.43
19676;BME280;39539;52.202;9.876;2023-05-01T02:28:11;101113.97;;;4.63;94.88
19676;BME280;39539;52.202;9.876;2023-05-01T02:30:38;101102.41;;;4.56;96.73
19676;BME280;39539;52.202;9.876;2023-05-01T02:33:05;101112.53;;;4.68;94.56
19676;BME280;39539;52.202;9.876;2023-05-01T02:35:31;101109.38;;;4.65;91.91
19676;BME280;39539;52.202;9.876;2023-05-01T02:37:56;101092.13;;;4.36;92.94
19676;BME280;39539;52.202;9.876;2023-05-01T02:40:23;101099.03;;;4.11;95.34
19676;BME280;39539;52.202;9.876;2023-05-01T02:42:50;101092.41;;;4.07;96.16
19676;BME280;39539;52.202;9.876;2023-05-01T02:45:22;101082.81;;;4.24;94.66
19676;BME280;39539;52.202;9.876;2023-05-01T02:47:51;101088.69;;;4.44;93.40
19676;BME280;39539;52.202;9.876;2023-05-01T02:50:20;101088.25;;;4.48;92.68
19676;BME280;39539;52.202;9.876;2023-05-01T02:52:46;101081.63;;;4.44;92.99
19676;BME280;39539;52.202;9.876;2023-05-01T02:55:12;101089.88;;;4.49;94.66
19676;BME280;39539;52.202;9.876;2023-05-01T02:57:37;101080.63;;;4.37;95.51
19676;BME280;39539;52.202;9.876;2023-05-01T03:00:03;101072.84;;;4.27;97.00
19676;BME280;39539;52.202;9.876;2023-05-01T03:02:29;101075.72;;;4.16;97.73
19676;BME280;39539;52.202;9.876;2023-05-01T03:04:54;101071.19;;;4.00;98.18
19676;BME280;39539;52.202;9.876;2023-05-01T03:07:19;101061.44;;;3.75;100.00
19676;BME280;39539;52.202;9.876;2023-05-01T03:09:46;101060.56;;;3.66;100.00
19676;BME280;39539;52.202;9.876;2023-05-01T03:12:11;101056.75;;;3.60;100.00
19676;BME280;39539;52.202;9.876;2023-05-01T03:14:36;101061.31;;;3.58;100.00
19676;BME280;39539;52.202;9.876;2023-05-01T03:17:02;101065.38;;;3.53;100.00
19676;BME280;39539;52.202;9.876;2023-05-01T03:19:27;101051.41;;;3.52;100.00
19676;BME280;39539;52.202;9.876;2023-05-01T03:21:53;101054.34;;;3.49;100.00
19676;BME280;39539;52.202;9.876;2023-05-01T03:24:18;101050.97;;;3.57;100.00
19676;BME280;39539;52.202;9.876;2023-05-01T03:26:43;101053.50;;;3.67;100.00
19676;BME280;39539;52.202;9.876;2023-05-01T03:29:08;101049.84;;;3.59;100.00
19676;BME280;39539;52.202;9.876;2023-05-01T03:31:34;101048.84;;;3.60;100.00
19676;BME280;39539;52.202;9.876;2023-05-01T03:33:59;101046.97;;;3.53;100.00
19676;BME280;39539;52.202;9.876;2023-05-01T03:36:25;101044.22;;;3.54;100.00
19676;BME280;39539;52.202;9.876;2023-05-01T03:38:50;101041.59;;;3.54;100.00
19676;BME280;39539;52.202;9.876;2023-05-01T03:41:16;101033.22;;;3.59;100.00
19676;BME280;39539;52.202;9.876;2023-05-01T03:43:42;101030.59;;;3.59;100.00
19676;BME280;39539;52.202;9.876;2023-05-01T03:46:07;101039.84;;;3.63;100.00
19676;BME280;39539;52.202;9.876;2023-05-01T03:48:32;101033.53;;;3.74;100.00
19676;BME280;39539;52.202;9.876;2023-05-01T03:50:58;101028.84;;;3.86;100.00
19676;BME280;39539;52.202;9.876;2023-05-01T03:53:23;101027.84;;;3.87;100.00
19676;BME280;39539;52.202;9.876;2023-05-01T03:55:49;101020.13;;;3.85;100.00
19676;BME280;39539;52.202;9.876;2023-05-01T03:58:14;101013.69;;;3.79;100.00
19676;BME280;39539;52.202;9.876;2023-05-01T04:00:40;101024.78;;;3.91;100.00
19676;BME280;39539;52.202;9.876;2023-05-01T04:03:06;101019.50;;;3.91;100.00
19676;BME280;39539;52.202;9.876;2023-05-01T04:05:31;101021.59;;;3.88;100.00
19676;BME280;39539;52.202;9.876;2023-05-01T04:07:57;101006.00;;;3.86;100.00
19676;BME280;39539;52.202;9.876;2023-05-01T04:10:22;101001.88;;;3.83;100.00
19676;BME280;39539;52.202;9.876;2023-05-01T04:12:48;101013.13;;;3.94;100.00
19676;BME280;39539;52.202;9.876;2023-05-01T04:15:13;101008.81;;;3.93;100.00
19676;BME280;39539;52.202;9.876;2023-05-01T04:17:39;101009.31;;;3.88;100.00
19676;BME280;39539;52.202;9.876;2023-05-01T04:20:05;101008.19;;;3.91;100.00
19676;BME280;39539;52.202;9.876;2023-05-01T04:22:31;101001.59;;;3.95;100.00
19676;BME280;39539;52.202;9.876;2023-05-01T04:24:56;100996.81;;;3.90;100.00
19676;BME280;39539;52.202;9.876;2023-05-01T04:27:22;101006.72;;;3.96;100.00
19676;BME280;39539;52.202;9.876;2023-05-01T04:29:47;100998.84;;;4.04;100.00
19676;BME280;39539;52.202;9.876;2023-05-01T04:32:12;101003.47;;;4.02;99.19
19676;BME280;39539;52.202;9.876;2023-05-01T04:34:39;100997.28;;;4.12;99.26
19676;BME280;39539;52.202;9.876;2023-05-01T04:37:04;100995.97;;;4.16;100.00
19676;BME280;39539;52.202;9.876;2023-05-01T04:39:33;101004.94;;;4.31;100.00
19676;BME280;39539;52.202;9.876;2023-05-01T04:42:00;100998.41;;;4.43;99.33
19676;BME280;39539;52.202;9.876;2023-05-01T04:44:26;101002.38;;;4.47;98.45
19676;BME280;39539;52.202;9.876;2023-05-01T04:46:51;100999.09;;;4.54;97.39
19676;BME280;39539;52.202;9.876;2023-05-01T04:49:16;101001.44;;;4.65;97.29
19676;BME280;39539;52.202;9.876;2023-05-01T04:51:42;100999.00;;;4.80;96.53
19676;BME280;39539;52.202;9.876;2023-05-01T04:54:07;100990.97;;;4.89;96.04
19676;BME280;39539;52.202;9.876;2023-05-01T04:56:32;101003.03;;;5.08;95.43
19676;BME280;39539;52.202;9.876;2023-05-01T04:58:58;101012.09;;;5.30;95.00
19676;BME280;39539;52.202;9.876;2023-05-01T05:01:23;101000.72;;;5.46;94.31
19676;BME280;39539;52.202;9.876;2023-05-01T05:03:49;101004.19;;;5.71;92.04
19676;BME280;39539;52.202;9.876;2023-05-01T05:06:14;100994.94;;;5.92;88.74
19676;BME280;39539;52.202;9.876;2023-05-01T05:08:39;100982.41;;;5.94;88.17
19676;BME280;39539;52.202;9.876;2023-05-01T05:11:05;100989.16;;;6.04;87.16
19676;BME280;39539;52.202;9.876;2023-05-01T05:13:30;100987.59;;;6.26;88.06
19676;BME280;39539;52.202;9.876;2023-05-01T05:15:55;100983.91;;;6.44;89.06
19676;BME280;39539;52.202;9.876;2023-05-01T05:18:21;100992.09;;;6.57;89.81
19676;BME280;39539;52.202;9.876;2023-05-01T05:20:46;100982.09;;;6.75;88.30
19676;BME280;39539;52.202;9.876;2023-05-01T05:23:12;100978.94;;;7.03;86.31
19676;BME280;39539;52.202;9.876;2023-05-01T05:25:37;100988.59;;;7.19;85.79
19676;BME280;39539;52.202;9.876;2023-05-01T05:28:03;100992.81;;;7.81;84.64
19676;BME280;39539;52.202;9.876;2023-05-01T05:30:28;100961.47;;;8.07;77.62
19676;BME280;39539;52.202;9.876;2023-05-01T05:32:54;100979.00;;;8.74;75.53
19676;BME280;39539;52.202;9.876;2023-05-01T05:35:19;100971.53;;;9.21;70.90
19676;BME280;39539;52.202;9.876;2023-05-01T05:37:45;100971.22;;;9.59;67.13
19676;BME280;39539;52.202;9.876;2023-05-01T05:40:11;100960.31;;;10.10;66.03
19676;BME280;39539;52.202;9.876;2023-05-01T05:42:36;100955.53;;;10.95;62.39
19676;BME280;39539;52.202;9.876;2023-05-01T05:45:01;100947.75;;;11.93;58.78
19676;BME280;39539;52.202;9.876;2023-05-01T05:47:27;100944.47;;;13.44;54.35
19676;BME280;39539;52.202;9.876;2023-05-01T05:49:52;100918.38;;;14.99;50.36
19676;BME280;39539;52.202;9.876;2023-05-01T05:52:19;100898.88;;;15.81;48.68
19676;BME280;39539;52.202;9.876;2023-05-01T05:54:45;100875.53;;;16.22;47.72
19676;BME280;39539;52.202;9.876;2023-05-01T05:57:10;100870.41;;;17.11;45.41
19676;BME280;39539;52.202;9.876;2023-05-01T05:59:35;100871.16;;;18.55;43.38
19676;BME280;39539;52.202;9.876;2023-05-01T06:02:01;100835.97;;;18.94;41.66
19676;BME280;39539;52.202;9.876;2023-05-01T06:04:26;100818.16;;;19.31;39.73
19676;BME280;39539;52.202;9.876;2023-05-01T06:06:52;100812.19;;;19.81;39.79
19676;BME280;39539;52.202;9.876;2023-05-01T06:09:17;100807.97;;;20.11;39.08
19676;BME280;39539;52.202;9.876;2023-05-01T06:11:43;100807.81;;;19.70;39.49
19676;BME280;39539;52.202;9.876;2023-05-01T06:14:09;100787.66;;;19.98;38.67
19676;BME280;39539;52.202;9.876;2023-05-01T06:16:35;100797.22;;;20.62;37.98
19676;BME280;39539;52.202;9.876;2023-05-01T06:19:01;100795.59;;;21.77;37.12
19676;BME280;39539;52.202;9.876;2023-05-01T06:21:26;100798.47;;;23.28;35.84
19676;BME280;39539;52.202;9.876;2023-05-01T06:23:51;100797.38;;;24.67;34.72
19676;BME280;39539;52.202;9.876;2023-05-01T06:26:17;100797.78;;;25.34;33.18
19676;BME280;39539;52.202;9.876;2023-05-01T06:28:42;100798.03;;;25.05;32.96
19676;BME280;39539;52.202;9.876;2023-05-01T06:31:08;100773.63;;;23.64;34.08
19676;BME280;39539;52.202;9.876;2023-05-01T06:33:33;100773.28;;;22.69;35.58
19676;BME280;39539;52.202;9.876;2023-05-01T06:35:58;100769.31;;;22.91;35.87
19676;BME280;39539;52.202;9.876;2023-05-01T06:38:25;100770.72;;;23.12;35.24
19676;BME280;39539;52.202;9.876;2023-05-01T06:40:50;100777.44;;;25.45;34.05
19676;BME280;39539;52.202;9.876;2023-05-01T06:43:16;100787.38;;;24.95;33.90
19676;BME280;39539;52.202;9.876;2023-05-01T06:45:41;100770.63;;;26.74;31.23
19676;BME280;39539;52.202;9.876;2023-05-01T06:48:07;100782.16;;;26.49;31.54
19676;BME280;39539;52.202;9.876;2023-05-01T06:50:32;100784.53;;;25.69;31.59
19676;BME280;39539;52.202;9.876;2023-05-01T06:52:58;100759.88;;;24.31;32.49
19676;BME280;39539;52.202;9.876;2023-05-01T06:55:25;100774.72;;;23.63;33.22
19676;BME280;39539;52.202;9.876;2023-05-01T06:57:51;100769.63;;;22.15;35.34
19676;BME280;39539;52.202;9.876;2023-05-01T07:00:16;100757.72;;;21.02;36.67
19676;BME280;39539;52.202;9.876;2023-05-01T07:02:43;100769.94;;;20.74;38.33
19676;BME280;39539;52.202;9.876;2023-05-01T07:05:09;100779.63;;;20.95;38.66
19676;BME280;39539;52.202;9.876;2023-05-01T07:07:34;100785.59;;;22.22;37.09
19676;BME280;39539;52.202;9.876;2023-05-01T07:10:00;100781.09;;;23.53;35.68
19676;BME280;39539;52.202;9.876;2023-05-01T07:12:26;100780.16;;;24.71;33.36
19676;BME280;39539;52.202;9.876;2023-05-01T07:14:52;100757.38;;;25.27;33.11
19676;BME280;39539;52.202;9.876;2023-05-01T07:17:17;100755.72;;;23.63;33.44
19676;BME280;39539;52.202;9.876;2023-05-01T07:19:43;100775.41;;;25.23;32.78
19676;BME280;39539;52.202;9.876;2023-05-01T07:22:08;100761.22;;;25.26;31.59
19676;BME280;39539;52.202;9.876;2023-05-01T07:24:34;100759.75;;;24.87;32.14
19676;BME280;39539;52.202;9.876;2023-05-01T07:26:59;100753.69;;;23.73;33.35
19676;BME280;39539;52.202;9.876;2023-05-01T07:29:26;100746.16;;;22.45;35.13
19676;BME280;39539;52.202;9.876;2023-05-01T07:31:51;100746.38;;;22.49;35.29
19676;BME280;39539;52.202;9.876;2023-05-01T07:34:17;100747.34;;;22.63;35.35
19676;BME280;39539;52.202;9.876;2023-05-01T07:36:44;100728.91;;;22.65;35.61
19676;BME280;39539;52.202;9.876;2023-05-01T07:39:10;100746.50;;;22.97;35.59
19676;BME280;39539;52.202;9.876;2023-05-01T07:41:37;100725.91;;;22.37;35.00
19676;BME280;39539;52.202;9.876;2023-05-01T07:44:02;100721.53;;;21.63;35.99
19676;BME280;39539;52.202;9.876;2023-05-01T07:46:28;100730.94;;;22.20;36.90
19676;BME280;39539;52.202;9.876;2023-05-01T07:48:53;100736.09;;;23.04;35.29
19676;BME280;39539;52.202;9.876;2023-05-01T07:51:19;100731.88;;;23.17;35.06
19676;BME280;39539;52.202;9.876;2023-05-01T07:53:45;100734.78;;;24.20;34.33
19676;BME280;39539;52.202;9.876;2023-05-01T07:56:11;100729.97;;;25.24;33.30
19676;BME280;39539;52.202;9.876;2023-05-01T07:58:37;100725.72;;;25.31;31.98
19676;BME280;39539;52.202;9.876;2023-05-01T08:01:03;100714.84;;;25.31;32.24
19676;BME280;39539;52.202;9.876;2023-05-01T08:03:30;100719.06;;;25.88;32.62
19676;BME280;39539;52.202;9.876;2023-05-01T08:05:57;100708.91;;;25.66;31.59
19676;BME280;39539;52.202;9.876;2023-05-01T08:08:23;100725.75;;;25.68;32.58
19676;BME280;39539;52.202;9.876;2023-05-01T08:10:50;100717.56;;;26.27;31.10
19676;BME280;39539;52.202;9.876;2023-05-01T08:13:16;100693.81;;;26.18;32.04
19676;BME280;39539;52.202;9.876;2023-05-01T08:15:41;100715.78;;;27.24;31.81
19676;BME280;39539;52.202;9.876;2023-05-01T08:18:08;100706.63;;;28.42;30.36
19676;BME280;39539;52.202;9.876;2023-05-01T08:20:36;100716.31;;;29.67;27.94
19676;BME280;39539;52.202;9.876;2023-05-01T08:23:02;100712.94;;;29.61;28.11
19676;BME280;39539;52.202;9.876;2023-05-01T08:25:29;100718.56;;;30.19;28.00
19676;BME280;39539;52.202;9.876;2023-05-01T08:27:55;100701.09;;;30.69;27.85
19676;BME280;39539;52.202;9.876;2023-05-01T08:30:21;100719.72;;;31.49;25.92
19676;BME280;39539;52.202;9.876;2023-05-01T08:32:47;100709.69;;;32.26;26.34
19676;BME280;39539;52.202;9.876;2023-05-01T08:35:12;100714.59;;;33.31;24.38
19676;BME280;39539;52.202;9.876;2023-05-01T08:37:37;100718.63;;;32.38;25.25
19676;BME280;39539;52.202;9.876;2023-05-01T08:40:03;100721.53;;;32.58;25.15
19676;BME280;39539;52.202;9.876;2023-05-01T08:42:35;100706.66;;;31.46;25.44
19676;BME280;39539;52.202;9.876;2023-05-01T08:45:06;100715.81;;;31.91;27.87
19676;BME280;39539;52.202;9.876;2023-05-01T08:47:35;100702.81;;;32.48;26.53
19676;BME280;39539;52.202;9.876;2023-05-01T08:50:02;100713.13;;;33.18;26.12
19676;BME280;39539;52.202;9.876;2023-05-01T08:52:29;100709.00;;;32.76;26.15
19676;BME280;39539;52.202;9.876;2023-05-01T08:54:56;100690.19;;;32.47;27.30
19676;BME280;39539;52.202;9.876;2023-05-01T08:57:24;100678.22;;;31.14;28.82
19676;BME280;39539;52.202;9.876;2023-05-01T08:59:52;100704.66;;;32.59;29.31
19676;BME280;39539;52.202;9.876;2023-05-01T09:02:22;100692.81;;;32.75;26.92
19676;BME280;39539;52.202;9.876;2023-05-01T09:04:50;100697.03;;;33.20;26.66
19676;BME280;39539;52.202;9.876;2023-05-01T09:07:16;100696.22;;;32.84;27.76
19676;BME280;39539;52.202;9.876;2023-05-01T09:09:42;100682.47;;;33.19;27.63
19676;BME280;39539;52.202;9.876;2023-05-01T09:14:34;100670.66;;;33.19;26.69
19676;BME280;39539;52.202;9.876;2023-05-01T09:17:00;100686.66;;;33.13;27.95
19676;BME280;39539;52.202;9.876;2023-05-01T09:19:25;100682.03;;;33.17;26.92
19676;BME280;39539;52.202;9.876;2023-05-01T09:21:52;100674.00;;;32.45;27.76
19676;BME280;39539;52.202;9.876;2023-05-01T09:24:18;100645.50;;;30.97;27.94
19676;BME280;39539;52.202;9.876;2023-05-01T09:26:44;100670.53;;;30.71;28.79
19676;BME280;39539;52.202;9.876;2023-05-01T09:29:09;100663.31;;;30.41;30.60
19676;BME280;39539;52.202;9.876;2023-05-01T09:31:36;100645.47;;;30.23;29.93
19676;BME280;39539;52.202;9.876;2023-05-01T09:34:03;100654.13;;;29.80;32.06
19676;BME280;39539;52.202;9.876;2023-05-01T09:36:30;100658.53;;;29.51;30.39
19676;BME280;39539;52.202;9.876;2023-05-01T09:39:00;100652.41;;;29.54;30.70
19676;BME280;39539;52.202;9.876;2023-05-01T09:41:27;100654.91;;;29.80;31.42
19676;BME280;39539;52.202;9.876;2023-05-01T09:43:57;100657.75;;;29.50;31.30
19676;BME280;39539;52.202;9.876;2023-05-01T09:46:24;100664.69;;;29.69;30.48
19676;BME280;39539;52.202;9.876;2023-05-01T09:48:56;100656.16;;;29.70;29.97
19676;BME280;39539;52.202;9.876;2023-05-01T09:51:28;100653.09;;;29.30;30.75
19676;BME280;39539;52.202;9.876;2023-05-01T09:54:04;100651.50;;;28.99;32.12
19676;BME280;39539;52.202;9.876;2023-05-01T09:56:46;100656.78;;;29.04;32.32
19676;BME280;39539;52.202;9.876;2023-05-01T09:59:17;100666.69;;;29.81;30.05
19676;BME280;39539;52.202;9.876;2023-05-01T10:01:44;100664.38;;;30.49;31.01
19676;BME280;39539;52.202;9.876;2023-05-01T10:04:12;100661.63;;;30.74;31.63
19676;BME280;39539;52.202;9.876;2023-05-01T10:06:38;100674.72;;;31.29;29.70
19676;BME280;39539;52.202;9.876;2023-05-01T10:09:06;100648.03;;;30.90;30.65
19676;BME280;39539;52.202;9.876;2023-05-01T10:11:51;100655.91;;;31.03;30.76
19676;BME280;39539;52.202;9.876;2023-05-01T10:14:18;100655.25;;;31.47;29.71
19676;BME280;39539;52.202;9.876;2023-05-01T10:16:44;100656.66;;;31.16;30.26
19676;BME280;39539;52.202;9.876;2023-05-01T10:19:11;100648.44;;;32.29;28.76
19676;BME280;39539;52.202;9.876;2023-05-01T10:21:37;100634.22;;;32.74;28.28
19676;BME280;39539;52.202;9.876;2023-05-01T10:24:02;100634.97;;;32.91;28.01
19676;BME280;39539;52.202;9.876;2023-05-01T10:26:31;100621.81;;;32.17;30.23
19676;BME280;39539;52.202;9.876;2023-05-01T10:28:59;100623.63;;;31.53;30.61
19676;BME280;39539;52.202;9.876;2023-05-01T10:31:26;100628.34;;;30.51;31.89
19676;BME280;39539;52.202;9.876;2023-05-01T10:33:54;100611.66;;;29.11;31.26
19676;BME280;39539;52.202;9.876;2023-05-01T10:36:39;100605.63;;;27.46;33.99
19676;BME280;39539;52.202;9.876;2023-05-01T10:39:33;100619.69;;;26.08;36.81
19676;BME280;39539;52.202;9.876;2023-05-01T10:41:59;100616.09;;;25.76;35.94
19676;BME280;39539;52.202;9.876;2023-05-01T10:44:26;100603.38;;;24.02;37.99
19676;BME280;39539;52.202;9.876;2023-05-01T10:46:52;100623.81;;;24.46;39.76
19676;BME280;39539;52.202;9.876;2023-05-01T10:49:17;100611.25;;;24.04;41.67
19676;BME280;39539;52.202;9.876;2023-05-01T10:52:01;100614.59;;;23.44;42.75
19676;BME280;39539;52.202;9.876;2023-05-01T10:54:31;100622.81;;;23.77;41.11
19676;BME280;39539;52.202;9.876;2023-05-01T10:56:59;100628.75;;;24.11;40.34
19676;BME280;39539;52.202;9.876;2023-05-01T11:02:20;100619.22;;;24.41;39.99
19676;BME280;39539;52.202;9.876;2023-05-01T11:04:48;100609.47;;;24.40;37.57
19676;BME280;39539;52.202;9.876;2023-05-01T11:07:17;100616.91;;;24.35;38.87
19676;BME280;39539;52.202;9.876;2023-05-01T11:12:13;100619.47;;;23.98;42.39
19676;BME280;39539;52.202;9.876;2023-05-01T11:20:09;100613.97;;;23.33;41.47
19676;BME280;39539;52.202;9.876;2023-05-01T11:22:44;100616.44;;;23.48;41.13
19676;BME280;39539;52.202;9.876;2023-05-01T11:25:24;100614.97;;;23.37;40.69
19676;BME280;39539;52.202;9.876;2023-05-01T11:27:54;100618.41;;;23.43;42.22
19676;BME280;39539;52.202;9.876;2023-05-01T11:30:20;100614.38;;;23.40;41.24
19676;BME280;39539;52.202;9.876;2023-05-01T11:32:47;100596.38;;;23.30;39.59
19676;BME280;39539;52.202;9.876;2023-05-01T11:35:21;100613.59;;;23.40;40.23
19676;BME280;39539;52.202;9.876;2023-05-01T11:37:48;100607.34;;;23.20;42.50
19676;BME280;39539;52.202;9.876;2023-05-01T11:40:31;100607.41;;;23.15;40.91
19676;BME280;39539;52.202;9.876;2023-05-01T11:43:05;100609.28;;;23.39;41.05
19676;BME280;39539;52.202;9.876;2023-05-01T11:45:33;100601.78;;;23.30;39.46
19676;BME280;39539;52.202;9.876;2023-05-01T11:47:59;100602.22;;;23.38;39.73
19676;BME280;39539;52.202;9.876;2023-05-01T11:50:37;100592.75;;;23.54;40.53
19676;BME280;39539;52.202;9.876;2023-05-01T11:53:13;100600.34;;;23.90;39.07
19676;BME280;39539;52.202;9.876;2023-05-01T11:55:43;100597.53;;;23.95;40.04
19676;BME280;39539;52.202;9.876;2023-05-01T11:58:11;100604.44;;;24.34;40.14
19676;BME280;39539;52.202;9.876;2023-05-01T12:00:39;100601.66;;;24.53;40.36
19676;BME280;39539;52.202;9.876;2023-05-01T12:03:12;100603.25;;;24.68;38.52
19676;BME280;39539;52.202;9.876;2023-05-01T12:05:39;100598.13;;;24.80;38.87
19676;BME280;39539;52.202;9.876;2023-05-01T12:08:07;100593.00;;;24.64;39.28
19676;BME280;39539;52.202;9.876;2023-05-01T12:10:34;100602.03;;;24.60;40.08
19676;BME280;39539;52.202;9.876;2023-05-01T12:13:01;100584.72;;;24.42;38.44
19676;BME280;39539;52.202;9.876;2023-05-01T12:15:27;100589.97;;;24.52;40.56
19676;BME280;39539;52.202;9.876;2023-05-01T12:17:53;100583.94;;;24.55;41.12
19676;BME280;39539;52.202;9.876;2023-05-01T12:20:33;100590.78;;;24.67;42.41
19676;BME280;39539;52.202;9.876;2023-05-01T12:22:59;100597.78;;;24.95;40.74
19676;BME280;39539;52.202;9.876;2023-05-01T12:25:34;100585.94;;;24.63;38.01
19676;BME280;39539;52.202;9.876;2023-05-01T12:28:01;100583.66;;;24.43;41.07
19676;BME280;39539;52.202;9.876;2023-05-01T12:30:27;100581.88;;;24.19;41.52
19676;BME280;39539;52.202;9.876;2023-05-01T12:32:55;100570.56;;;23.85;37.73
19676;BME280;39539;52.202;9.876;2023-05-01T12:35:21;100566.84;;;23.62;40.97
19676;BME280;39539;52.202;9.876;2023-05-01T12:37:47;100571.31;;;23.71;41.52
19676;BME280;39539;52.202;9.876;2023-05-01T12:40:13;100574.78;;;23.91;41.38
19676;BME280;39539;52.202;9.876;2023-05-01T12:42:40;100578.16;;;24.15;41.91
19676;BME280;39539;52.202;9.876;2023-05-01T12:45:06;100581.59;;;24.35;41.35
19676;BME280;39539;52.202;9.876;2023-05-01T12:47:37;100570.72;;;24.35;39.51
19676;BME280;39539;52.202;9.876;2023-05-01T12:50:03;100570.19;;;24.05;42.59
19676;BME280;39539;52.202;9.876;2023-05-01T12:52:29;100572.13;;;24.18;41.64
19676;BME280;39539;52.202;9.876;2023-05-01T12:55:02;100574.53;;;24.34;42.17
19676;BME280;39539;52.202;9.876;2023-05-01T12:57:29;100572.03;;;24.24;42.33
19676;BME280;39539;52.202;9.876;2023-05-01T13:00:02;100561.53;;;24.17;41.16
19676;BME280;39539;52.202;9.876;2023-05-01T13:02:31;100555.59;;;24.01;39.73
19676;BME280;39539;52.202;9.876;2023-05-01T13:05:07;100547.56;;;23.96;37.57
19676;BME280;39539;52.202;9.876;2023-05-01T13:07:34;100532.75;;;23.88;39.16
19676;BME280;39539;52.202;9.876;2023-05-01T13:10:02;100542.22;;;23.91;40.66
19676;BME280;39539;52.202;9.876;2023-05-01T13:12:29;100541.38;;;23.77;39.97
19676;BME280;39539;52.202;9.876;2023-05-01T13:14:55;100543.50;;;23.80;40.37
19676;BME280;39539;52.202;9.876;2023-05-01T13:17:29;100538.31;;;23.64;40.78
19676;BME280;39539;52.202;9.876;2023-05-01T13:19:59;100537.47;;;23.50;39.52